Natalia, Texas
Current Conditions -  °F | °C
As of 4:35 PM on Friday 31 Oct 2014 (Local Time) from KCVB Reporting Station
Clear Clear  
Wind Chill: 77°   Ceiling: Unl
Heat Index: 77°   Visibility: 10mi
Dew Point: 36°   Wind: 8mph
Humidity: 23%   Direction: 40°NE
Pressure: 30.22"   Gusts: 18mph
Location:  29.19°N, 98.86°W
Report Text: KCVB 312135Z AUTO 04007G16KT 10SM CLR 25/02 A3022 RMK AO2 T02500023
Loading
Personal Weather Stations






























Interactive Weather Map
Tropical Storm Tracking
New forecast layout! Learn more

10-Day Weather Forecast

Advertisements
Track Severe Weather on mobile